Etusivu
METAR-TAF:

METAR-TAF

Lentoasemat :

Aupaluk, Quebec, Kanada

Leveyspiiri: 59-17-48N, Pituuspiiri: 069-35-59W, korkeus merenpinnasta: 35 m

Tämänhetkinen sää

Tämä raportti tehtiin 14 tuntia ja 17 minuuttia sitten, kello 21.00 UTC
Tuuli 7 kn pohjoisesta/koillisesta
Lämpötila -1°C
Kosteus 100%
Ilmanpaine 1024 hPa
Näkyvyys: 2.8 km
Pilvistä 100 ft:n korkeudessa
utua

METAR: CYLA 132100Z 02007KT 1 3/4SM BR OVC001 M01/M01 A3024 RMK FG3ST5 LAST STFD OBS/NXT 141200Z SLP244

Aika: 07:17 (11:17 UTC)


TAF: puuttuu

Säähavainnot ja -ennusteet yli 4000 lentoasemalta (METAR- ja TAF-raportit).

Käytössä olevat sääasemat on merkitty karttaan keltaisilla ja punaisilla pisteillä.

Aseta hiiri pisteen päälle nähdäksesi sääaseman nimen.

Klikkaa sitten nähdäksesi säähavainnot ja -ennusteet.

Kartan vaihtaminen: klikkaa mustalla rastilla varustettuja vihreitä pisteitä, niin voit zoomata sisään; viivalla varustettua vihreää pistettä, niin voit zoomata ulos tai vihreitä nuolia, niin pääset viereisille kartoille.


METAR-TAF: